MST,Max TemperatureF,Mean TemperatureF,Min TemperatureF,Max Dew PointF,MeanDew PointF,Min DewpointF,Max Humidity, Mean Humidity, Min Humidity, Max Sea Level PressureIn, Mean Sea Level PressureIn, Min Sea Level PressureIn, Max VisibilityMiles, Mean VisibilityMiles, Min VisibilityMiles, Max Wind SpeedMPH, Mean Wind SpeedMPH, Max Gust SpeedMPH,PrecipitationIn, CloudCover, Events, WindDirDegrees
2012-11-1,86,74,62,63,55,39,54,43,28,29.90,29.85,29.80,10,10,10,12,2,,0.00,0,,184
2012-11-2,86,74,62,68,61,46,62,54,48,29.89,29.84,29.79,10,10,10,12,2,,0.00,0,,183
2012-11-3,84,75,66,68,64,59,78,60,51,29.93,29.88,29.81,10,10,10,12,4,,0.00,1,,192
2012-11-4,91,80,68,61,58,52,78,45,28,29.94,29.90,29.85,10,10,10,12,3,,0.00,0,,248
2012-11-5,89,80,71,66,59,54,61,46,31,29.94,29.89,29.84,10,9,4,16,5,,0.00,0,,184
2012-11-6,89,80,71,70,62,55,74,51,31,29.94,29.88,29.83,10,10,10,12,5,,0.00,1,,181
2012-11-7,89,78,68,70,61,54,66,51,29,29.91,29.86,29.80,10,10,10,12,3,,0.00,4,,193
2012-11-8,87,76,64,72,61,52,78,54,29,29.89,29.84,29.79,10,10,10,12,2,,0.00,1,,191
2012-11-9,84,76,69,72,68,64,88,70,51,29.87,29.81,29.76,10,8,4,12,3,,0.00,4,,182
2012-11-10,78,73,68,72,57,52,94,57,41,29.95,29.90,29.86,10,9,4,16,6,,0.00,2,,268
2012-11-11,77,65,53,73,68,52,94,90,88,30.05,30.01,29.96,10,10,10,18,9,,0.00,0,,316
2012-11-12,78,68,57,75,68,54,94,87,82,30.04,29.97,29.90,10,10,10,16,11,,0.00,6,,6
2012-11-13,84,75,66,81,73,61,100,90,83,29.98,29.92,29.86,10,10,10,12,6,,0.00,4,,151
2012-11-14,82,74,66,81,74,63,100,94,88,29.99,29.93,29.89,10,10,5,12,5,,0.00,4,,187
2012-11-15,82,73,64,81,72,63,100,94,79,30.02,29.97,29.93,10,9,5,9,3,,0.00,7,,171
2012-11-16,93,82,71,88,79,70,100,95,84,29.98,29.91,29.87,10,9,5,12,6,,0.00,5,,129
2012-11-17,86,80,75,84,79,75,100,97,89,29.95,29.91,29.88,10,9,4,12,3,,0.00,8,,197
2012-11-18,82,78,73,81,76,72,100,96,94,30.00,29.97,29.94,10,10,4,10,4,,0.00,8,,164
2012-11-19,87,78,68,86,78,66,100,96,89,30.04,29.99,29.94,10,9,4,13,4,,0.00,4,,288
2012-11-20,80,74,69,70,55,46,100,52,30,29.96,29.91,29.86,10,9,5,12,7,,0.00,8,,43
2012-11-21,86,76,66,66,57,50,78,55,37,29.96,29.91,29.86,10,10,10,12,5,,0.00,0,,186
2012-11-22,77,67,57,66,60,50,77,67,50,29.99,29.95,29.92,10,9,5,13,4,,0.00,3,,190
2012-11-23,80,73,66,70,57,50,83,56,34,30.01,29.96,29.89,10,10,5,13,3,,0.00,0,,190
2012-11-24,78,68,57,64,57,48,78,60,42,29.97,29.89,29.84,10,8,4,14,3,23,0.00,0,,191
2012-11-25,80,70,59,59,52,45,72,53,34,29.90,29.85,29.79,10,8,4,10,2,,0.00,2,,196
2012-11-26,77,68,60,63,57,46,78,61,46,29.97,29.92,29.89,10,9,5,16,2,,0.00,2,,190
2012-11-27,78,68,59,64,59,54,83,65,47,30.07,30.00,29.95,10,10,10,16,4,,0.00,2,,191
2012-11-28,78,68,57,63,58,48,72,60,39,30.10,30.03,29.98,10,9,5,12,3,,0.00,6,,196
2012-11-29,84,72,60,61,53,45,77,51,26,30.05,29.99,29.93,10,10,5,14,3,,0.00,6,,283
2012-11-30,84,74,64,61,52,39,64,44,20,29.99,29.93,29.88,10,10,5,14,4,,0.00,2,,195